Ashland, Wisconsin
Current Conditions -  °F | °C
As of 8:53 PM on Saturday 24 Jan 2015 (Local Time) from KASX Reporting Station
Overcast Overcast  
Wind Chill: -14°   Ceiling: 1700
Heat Index: -6°   Visibility: 10mi
Dew Point: -9°   Wind: 18mph
Humidity: 75%   Direction: 60°ENE
Pressure: 29.78"   Gusts: 26mph
Location:  46.59°N, 90.89°W
Report Text: KASX 250253Z AUTO 06016G23KT 10SM BKN017 OVC036 M06/M09 A2978 RMK AO2 SLP098 T10561094 53024
Loading
Personal Weather Stations






























Interactive Weather Map New forecast layout! Learn more

10-Day Weather Forecast

Advertisements
Track Severe Weather on mobile